KJAS

Jasper County-Bell Field Airport

Jasper, Texas, USA
METAR KJAS 140735Z AUTO 26008KT 10SM SCT075 10/06 A2980 RMK AO2 T00990060
Observed Flight Rules
Dec-14 @ 07:35 UTC (37 minutes ago) Visual Flight Rules
Wind Visibility Clouds
260° at 8 knots 10 miles
  • Scattered at 7,500' AGL
Temperatures Readings
Current 10°C / 50°F
Dewpoint 6°C / 43°F
Humidity 76%
Altimeter 29.8" Hg
Pressure 1009 hPa
Elevation 65
METAR KJAS 140735Z AUTO 26008KT 10SM SCT075 10/06 A2980 RMK AO2 T00990060
Observed Flight Rules
Dec-14 @ 07:35 UTC
(37 minutes ago)
VFR
Wind Visibility
260° at 8 knots 10 miles
Clouds
  • Scattered at 7,500' AGL
Temperature Dewpoint
10°C / 50°F 6°C / 43°F
Humidity Altimeter Pressure
76% 29.8" Hg 1009 hPa